Terminal Aerodrome Forecast
Issued by NWS

Current Version | Previous Version | Text Only | Print | Product List | Glossary On
Versions: 1 2 3 4 5 6 7 8 9 10 11 12 13 14 15
594
FTUS43 KIND 201120
TAFHUF
TAF
KHUF 201120Z 2012/2112 19004KT P6SM SCT200
     FM201600 23008KT P6SM SCT040 SCT150
     FM210200 22004KT P6SM FEW250=

USA.gov is the U.S. government's official web portal to all federal, state and local government web resources and services.